Detalii statie AGROKAISER STANESTI [0000198D]

Toti senzorii

Date Temperatura solului [C]Precipitatii [mm]Voltaj baterie [mV]Leaf Wetness [Min]HC Air temperature [C]HC Relative humidity [%]Punctul de roua [C]
medieminmaxsumaultimatimpmedieminmaxmediemediemin
2020-06-02 08:00:00 0 6542 12.31 12.04 12.44 100 12.2 12
2020-06-02 09:00:00 0 6572 12.03 11.5 12.24 100 12 11.5
2020-06-02 10:00:00 0 6562 11.64 11.41 11.88 100 11.6 11.4
2020-06-02 11:00:00 0 6620 11.22 10.7 11.96 100 11.1 10.7
2020-06-02 12:00:00 0 6874 11.35 10.68 11.96 100 11.3 10.6
2020-06-02 13:00:00 0 6844 11.35 10.97 11.92 100 11.3 10.9
2020-06-02 14:00:00 0 7254 11.43 10.66 12.33 100 11.3 10.6
2020-06-02 15:00:00 0 7264 12.39 11.9 13.07 100 12.3 11.9
2020-06-02 16:00:00 0 7128 13.74 12.91 14.27 100 13.6 12.9
2020-06-02 17:00:00 0 7138 14.56 14.17 15.33 100 14.5 14.1
2020-06-02 18:00:00 0 6962 14.88 14.3 15.58 100 14.8 14.3
2020-06-02 19:00:00 0 6816 14.43 14.29 14.52 100 14.3 14.2
2020-06-02 20:00:00 0 6688 14.02 13.69 14.39 100 13.9 13.6
2020-06-02 21:00:00 0 6668 11.29 10.06 13.84 100 11.2 10
2020-06-02 22:00:00 0 6640 10.11 10.02 10.18 100 10 10
2020-06-02 23:00:00 0 6610 9.8 9.6 9.98 100 9.7 9.6
2020-06-03 00:00:00 0 6582 9.29 8.95 9.67 100 9.2 8.9
2020-06-03 01:00:00 0 6572 8.59 8.23 9.07 100 8.5 8.2
2020-06-03 02:00:00 0 6562 7.8 7.57 8.23 100 7.7 7.5
2020-06-03 03:00:00 0 6542 7.62 7.48 7.77 100 7.5 7.4
2020-06-03 04:00:00 0 6542 7.57 7.34 7.83 100 7.5 7.3
2020-06-03 05:00:00 0 6542 7.11 6.81 7.41 100 7 6.8
2020-06-03 06:00:00 0 6542 6.61 6.12 6.8 100 6.5 6.1
2020-06-03 07:00:00 0 6590 6.85 6.43 7.45 100 6.8 6.4
2020-06-03 08:00:00 0 6786 7.75 7.4 8.77 100 7.7 7.4
2020-06-03 09:00:00 0 7000 9.46 8.9 10.08 100 9.4 8.9
2020-06-03 10:00:00 0 7216 10.93 9.9 11.69 100 10.9 9.9
2020-06-03 11:00:00 0 7264 12.81 11.78 14.47 100 12.7 11.7
2020-06-03 12:00:00 0 7274 15.98 14.92 16.98 100 15.9 14.9
2020-06-03 13:00:00 0 7060 17.56 16.84 18.15 96 16.8 15.8
2020-06-03 14:00:00 0 6972 18.78 18.35 19.71 88.66 16.7 15.7
2020-06-03 15:00:00 0 7070 19.4 18.67 20.27 85.77 16.8 16.2
2020-06-03 16:00:00 0 7040 20.07 19.42 20.69 81.35 16.6 15.8
2020-06-03 17:00:00 0 7050 20.24 19.76 20.7 80.25 16.5 16
2020-06-03 18:00:00 0 7010 19.97 19.54 20.43 81.22 16.4 15.8
2020-06-03 19:00:00 0 6904 20.04 19.45 20.66 80.65 16.4 16
2020-06-03 20:00:00 0 6806 19.72 19.22 20.17 85.57 17.1 16.3
2020-06-03 21:00:00 0 6756 18.05 16.98 18.84 97.82 17.6 16.9
2020-06-03 22:00:00 0 6698 15.8 14.81 16.94 100 15.7 14.8
2020-06-03 23:00:00 0 6678 14.24 13.6 14.85 100 14.2 13.6
2020-06-04 00:00:00 0 6650 13.24 12.93 13.46 100 13.1 12.9
2020-06-04 01:00:00 0 6610 12.71 11.96 13.23 100 12.6 11.9
2020-06-04 02:00:00 0 6590 11.7 11.52 11.92 100 11.6 11.5
2020-06-04 03:00:00 0 6572 11.59 11.4 11.8 100 11.5 11.4
2020-06-04 04:00:00 0 6572 11.35 11.08 11.68 100 11.3 11
2020-06-04 05:00:00 0 6562 10.93 10.68 11.46 100 10.8 10.6
2020-06-04 06:00:00 0 6552 10.77 10.63 10.87 100 10.7 10.6
2020-06-04 07:00:00 0 6600 11.05 10.49 11.89 100 11 10.4